アシガバート の空港の天気 - METARとTAF

アシガバート空港 ( UTAA / ASB ) - トルクメニスタン アシガバート
飛行場実況気象(Metar)
観測時間01/19 20:00 TMT (01/19 15:00 UTC)
風向・風速北北西 6m/s
視程10km以上
天気現象
全天の4割程度の雲 雲底高度 1010m
全天を覆う雲 雲底高度 3050m
気温5℃
湿度70%
気圧1016hPa
METARUTAA 191500Z 33012KT 9999 SCT033 OVC100 05/00 Q1016 R88/70D NOSIG
過去の天気等 Google飛行場航空写真 Wunderground天気予報

過去48時間のMETAR

飛行場予報(TAF)
発表時間: 1/19 18:29 TMT (1/19 13:29 UTC)
予報対象時間: 19日18時 TMT ~ 20日17時 TMT
風向・風速北西 8m/s 瞬間風速 13m/s
視程6000m
全天の8割程度の雲 雲底高度 460m
全天の4割程度の積乱雲 雲底高度 610m
19日18時 TMT ~ 20日1時 TMT に一時的に
風向・風速西 7m/s 瞬間風速 12m/s
視程3000m
天気現象弱い雨
19日18時 TMT ~ 19日23時 TMT に 確率 40% で一時的に
風向・風速南南西 8m/s
20日1時 TMT ~ 20日9時 TMT に一時的に
視程2000m
天気現象もや 弱い雨
全天の8割程度の雲 雲底高度 150m
TAF AMD UTAA 191329Z 1913/2012 32016G26KT 6000 BKN015 SCT020CB 530009
TEMPO 1913/1920 26014G24KT 3000 -RA
PROB40 TEMPO 1913/1918 20016KT
TEMPO 1920/2004 2000 BR -RA BKN005